createdAt,value
2022-08-30T00:04:02.389Z,14.99
2022-08-30T00:08:59.819Z,14.93
2022-08-30T00:13:57.408Z,14.99
2022-08-30T00:18:54.935Z,14.95
2022-08-30T00:23:52.370Z,14.91
2022-08-30T00:28:48.730Z,14.81
2022-08-30T00:33:45.136Z,14.74
2022-08-30T00:38:41.643Z,14.64
2022-08-30T00:43:38.041Z,14.65
2022-08-30T00:48:37.573Z,14.60
2022-08-30T00:53:42.070Z,14.53
2022-08-30T00:58:42.413Z,14.46
2022-08-30T01:03:40.212Z,14.42
2022-08-30T01:08:36.921Z,14.39
2022-08-30T01:13:35.247Z,14.36
2022-08-30T01:18:32.098Z,14.33
2022-08-30T01:23:30.035Z,14.27
2022-08-30T01:28:27.635Z,14.21
2022-08-30T01:33:24.773Z,14.21
2022-08-30T01:38:24.866Z,14.17
2022-08-30T01:43:21.259Z,14.05
2022-08-30T01:48:17.806Z,14.04
2022-08-30T01:53:14.289Z,13.98
2022-08-30T01:58:10.881Z,13.96
2022-08-30T02:03:07.627Z,13.84
2022-08-30T02:08:04.753Z,13.89
2022-08-30T02:13:01.276Z,13.86
2022-08-30T02:17:57.645Z,13.78
2022-08-30T02:23:01.220Z,13.73
2022-08-30T02:27:57.789Z,13.70
2022-08-30T02:32:54.140Z,13.74
2022-08-30T02:37:50.510Z,13.66
2022-08-30T02:42:47.016Z,13.66
2022-08-30T02:47:46.835Z,13.68
2022-08-30T02:52:45.297Z,13.70
2022-08-30T02:57:45.073Z,13.71
2022-08-30T03:02:42.104Z,13.71
2022-08-30T03:07:39.520Z,13.67
2022-08-30T03:12:36.150Z,13.64
2022-08-30T03:17:32.574Z,13.64
2022-08-30T03:22:29.566Z,13.58
2022-08-30T03:27:26.542Z,13.55
2022-08-30T03:32:23.910Z,13.54
2022-08-30T03:37:24.390Z,13.55
2022-08-30T03:42:24.819Z,13.54
2022-08-30T03:47:21.494Z,13.51
2022-08-30T03:52:17.854Z,13.50
2022-08-30T03:57:19.672Z,13.46
2022-08-30T04:02:16.771Z,13.43
2022-08-30T04:07:13.160Z,13.41
2022-08-30T04:12:09.538Z,13.38
2022-08-30T04:17:06.273Z,13.38
2022-08-30T04:22:02.770Z,13.33
2022-08-30T04:26:59.134Z,13.29
2022-08-30T04:31:55.679Z,13.23
2022-08-30T04:36:52.332Z,13.25
2022-08-30T04:41:49.161Z,13.19
2022-08-30T04:46:45.618Z,13.21
2022-08-30T04:51:42.035Z,13.18
2022-08-30T04:56:38.393Z,13.20
2022-08-30T05:01:36.754Z,13.23
2022-08-30T05:06:42.450Z,13.28
2022-08-30T05:11:38.904Z,13.34
2022-08-30T05:16:35.787Z,13.37
2022-08-30T05:21:32.286Z,13.37
2022-08-30T05:26:31.549Z,13.39
2022-08-30T05:31:34.641Z,13.48
2022-08-30T05:36:34.543Z,13.68
2022-08-30T05:41:30.917Z,14.06
2022-08-30T05:51:37.388Z,14.23
2022-08-30T05:56:42.376Z,14.37
2022-08-30T06:01:42.050Z,14.43
2022-08-30T06:06:40.442Z,14.28
2022-08-30T06:11:37.022Z,14.15
2022-08-30T06:16:35.565Z,13.94
2022-08-30T06:21:37.953Z,14.03
2022-08-30T06:26:39.023Z,14.05
2022-08-30T06:31:35.555Z,14.17
2022-08-30T06:36:32.740Z,14.48
2022-08-30T06:41:31.807Z,14.35
2022-08-30T06:46:33.456Z,14.09
2022-08-30T06:51:34.415Z,14.07
2022-08-30T06:56:31.829Z,14.15
2022-08-30T07:01:29.616Z,14.48
2022-08-30T07:06:26.692Z,15.00
2022-08-30T07:11:37.749Z,15.42
2022-08-30T07:16:34.590Z,15.84
2022-08-30T07:21:43.235Z,16.09
2022-08-30T07:26:43.405Z,16.13
2022-08-30T07:31:40.113Z,16.41
2022-08-30T07:36:38.242Z,17.08
2022-08-30T07:41:38.707Z,17.25
2022-08-30T07:46:36.913Z,17.50
2022-08-30T07:51:33.438Z,17.38
2022-08-30T07:56:29.878Z,17.42
2022-08-30T08:01:26.325Z,17.90
2022-08-30T08:06:23.515Z,17.77
2022-08-30T08:11:26.826Z,17.95
2022-08-30T08:16:28.813Z,18.17
2022-08-30T08:21:27.131Z,18.40
2022-08-30T08:26:23.513Z,18.57
2022-08-30T08:31:31.425Z,18.83
2022-08-30T08:36:31.275Z,18.74
2022-08-30T08:41:51.560Z,19.23
2022-08-30T08:47:17.923Z,18.95
2022-08-30T08:52:41.199Z,18.51
2022-08-30T08:57:38.075Z,18.92
2022-08-30T09:02:47.601Z,19.09
2022-08-30T09:07:50.129Z,18.99
2022-08-30T09:12:46.860Z,19.25
2022-08-30T09:18:19.846Z,19.67
2022-08-30T09:23:16.327Z,19.58
2022-08-30T09:28:16.219Z,19.59
2022-08-30T09:33:20.420Z,19.75
2022-08-30T09:38:20.751Z,19.68
2022-08-30T09:43:17.117Z,20.08
2022-08-30T09:48:29.188Z,20.55
2022-08-30T09:53:34.396Z,20.72
2022-08-30T09:58:53.628Z,20.92
2022-08-30T10:04:05.544Z,20.96
2022-08-30T10:09:13.053Z,20.85
2022-08-30T10:14:30.603Z,21.29
2022-08-30T10:19:33.173Z,21.84
2022-08-30T10:24:37.816Z,21.88
2022-08-30T10:29:42.273Z,21.90
2022-08-30T10:34:46.317Z,21.82
2022-08-30T10:39:48.887Z,21.65
2022-08-30T10:44:50.867Z,21.97
2022-08-30T10:49:49.494Z,21.06
2022-08-30T10:54:59.808Z,21.65
2022-08-30T11:00:27.303Z,21.69
2022-08-30T11:05:41.945Z,22.17
2022-08-30T11:10:50.678Z,22.39
2022-08-30T11:16:10.388Z,22.65
2022-08-30T11:21:25.290Z,22.79
2022-08-30T11:26:49.935Z,23.05
2022-08-30T11:31:46.805Z,23.28
2022-08-30T11:36:46.202Z,23.36
2022-08-30T11:41:48.272Z,22.80
2022-08-30T11:46:45.523Z,22.56
2022-08-30T11:51:58.249Z,22.65
2022-08-30T11:57:10.940Z,22.86
2022-08-30T12:02:08.057Z,22.84
2022-08-30T12:07:08.502Z,22.59
2022-08-30T12:12:12.432Z,22.81
2022-08-30T12:17:40.352Z,22.95
2022-08-30T12:22:38.011Z,23.30
2022-08-30T12:27:34.354Z,23.29
2022-08-30T12:32:32.962Z,22.82
2022-08-30T12:37:33.600Z,22.86
2022-08-30T12:42:33.516Z,23.53
2022-08-30T12:47:56.052Z,23.47
2022-08-30T12:53:14.288Z,24.17
2022-08-30T12:58:13.947Z,24.44
2022-08-30T13:03:31.995Z,24.28
2022-08-30T13:08:37.147Z,23.72
2022-08-30T13:13:41.395Z,24.08
2022-08-30T13:18:40.660Z,24.59
2022-08-30T13:23:37.940Z,24.69
2022-08-30T13:29:00.337Z,24.15
2022-08-30T13:33:57.663Z,24.31
2022-08-30T13:38:54.024Z,23.36
2022-08-30T13:54:34.973Z,23.38
2022-08-30T13:59:33.302Z,24.01
2022-08-30T14:04:29.789Z,24.31
2022-08-30T14:09:26.600Z,24.22
2022-08-30T14:14:41.481Z,23.81
2022-08-30T14:19:39.711Z,23.67
2022-08-30T14:24:36.031Z,24.11
2022-08-30T14:29:32.727Z,23.66
2022-08-30T14:34:29.317Z,23.60
2022-08-30T14:39:26.153Z,22.59
2022-08-30T14:44:23.230Z,23.04
2022-08-30T14:49:20.376Z,23.87
2022-08-30T14:54:17.797Z,23.63
2022-08-30T14:59:15.155Z,23.28
2022-08-30T15:04:14.880Z,23.68
2022-08-30T15:09:14.315Z,24.26
2022-08-30T15:14:16.004Z,24.17
2022-08-30T15:19:12.847Z,24.00
2022-08-30T15:24:13.052Z,23.50
2022-08-30T15:29:14.894Z,23.28
2022-08-30T15:34:14.401Z,22.87
2022-08-30T15:39:12.746Z,23.04
2022-08-30T15:44:11.560Z,23.81
2022-08-30T15:49:13.038Z,24.08
2022-08-30T15:54:12.238Z,23.79
2022-08-30T15:59:10.199Z,23.53
2022-08-30T16:04:07.180Z,24.43
2022-08-30T16:09:06.626Z,23.99
2022-08-30T16:14:04.884Z,23.86
2022-08-30T16:19:01.510Z,23.69
2022-08-30T16:24:00.213Z,23.43
2022-08-30T16:28:57.160Z,23.93
2022-08-30T16:33:54.946Z,24.39
2022-08-30T16:38:57.988Z,24.56
2022-08-30T16:43:55.635Z,25.63
2022-08-30T16:48:52.380Z,29.03
2022-08-30T16:53:49.846Z,30.89
2022-08-30T16:58:48.253Z,30.88
2022-08-30T17:03:44.633Z,31.49
2022-08-30T17:08:42.861Z,30.65
2022-08-30T17:13:39.536Z,29.70
2022-08-30T17:18:35.993Z,29.97
2022-08-30T17:23:33.980Z,28.20
2022-08-30T17:28:30.608Z,27.51
2022-08-30T17:33:27.217Z,26.75
2022-08-30T17:38:23.727Z,25.83
2022-08-30T17:43:20.131Z,24.33
2022-08-30T17:48:17.170Z,22.61
2022-08-30T17:53:13.610Z,21.79
2022-08-30T17:58:09.961Z,21.29
2022-08-30T18:03:06.435Z,20.87
2022-08-30T18:08:03.199Z,20.50
2022-08-30T18:12:59.772Z,20.08
2022-08-30T18:17:56.106Z,19.66
2022-08-30T18:22:52.521Z,19.38
2022-08-30T18:27:57.193Z,19.14
2022-08-30T18:32:55.407Z,18.87
2022-08-30T18:37:52.447Z,18.57
2022-08-30T18:42:49.009Z,18.33
2022-08-30T18:47:45.457Z,18.11
2022-08-30T18:52:42.071Z,18.01
2022-08-30T18:57:41.673Z,17.88
2022-08-30T19:02:39.027Z,17.82
2022-08-30T19:07:40.474Z,17.62
2022-08-30T19:12:36.853Z,17.40
2022-08-30T19:17:33.673Z,17.25
2022-08-30T19:22:36.079Z,17.12
2022-08-30T19:27:47.638Z,17.12
2022-08-30T19:32:47.771Z,17.08
2022-08-30T19:37:44.991Z,17.05
2022-08-30T19:42:45.951Z,17.28
2022-08-30T19:47:42.922Z,17.32
2022-08-30T19:52:40.135Z,17.48
2022-08-30T19:57:37.130Z,17.55
2022-08-30T20:02:34.952Z,17.59
2022-08-30T20:07:35.408Z,17.63
2022-08-30T20:12:34.324Z,17.63
2022-08-30T20:17:42.451Z,17.69
2022-08-30T20:22:50.967Z,17.59
2022-08-30T20:27:50.644Z,17.51
2022-08-30T20:32:47.101Z,17.46
2022-08-30T20:37:44.338Z,17.39
2022-08-30T20:42:43.622Z,17.42
2022-08-30T20:47:41.016Z,17.37
2022-08-30T20:52:37.457Z,17.40
2022-08-30T20:57:34.041Z,17.30
2022-08-30T21:02:31.482Z,17.27
2022-08-30T21:07:28.180Z,17.29
2022-08-30T21:12:25.132Z,17.24
2022-08-30T21:17:21.528Z,17.26
2022-08-30T21:22:17.873Z,17.24
2022-08-30T21:27:15.279Z,17.19
2022-08-30T21:32:11.672Z,17.16
2022-08-30T21:37:08.095Z,17.09
2022-08-30T21:42:04.521Z,17.06
2022-08-30T21:47:00.943Z,17.04
2022-08-30T21:51:57.321Z,17.05
2022-08-30T21:57:00.567Z,17.02
2022-08-30T22:01:57.536Z,16.98
2022-08-30T22:06:54.141Z,16.98
2022-08-30T22:11:51.056Z,16.95
2022-08-30T22:16:48.887Z,16.93
2022-08-30T22:21:47.878Z,16.89
2022-08-30T22:26:45.901Z,16.81
2022-08-30T22:31:42.292Z,16.76
2022-08-30T22:36:38.914Z,16.69
2022-08-30T22:41:36.475Z,16.62
2022-08-30T22:46:34.289Z,16.52
2022-08-30T22:51:31.475Z,16.50
2022-08-30T22:56:28.666Z,16.41
2022-08-30T23:01:34.629Z,16.42
2022-08-30T23:06:31.584Z,16.38
2022-08-30T23:11:27.948Z,16.33
2022-08-30T23:16:26.965Z,16.29
2022-08-30T23:21:26.691Z,16.24
2022-08-30T23:26:42.016Z,16.24
2022-08-30T23:31:56.997Z,16.23
2022-08-30T23:37:12.205Z,16.23
2022-08-30T23:42:27.095Z,16.13
2022-08-30T23:47:42.062Z,16.02
2022-08-30T23:52:57.375Z,15.91
2022-08-30T23:58:12.343Z,15.88
